sensor_id;sensor_type;location;lat;lon;timestamp;P1;durP1;ratioP1;P2;durP2;ratioP2
1404;SDS011;697;51.114;6.542;2022-10-15T00:00:32;7.10;;;6.40;;
1404;SDS011;697;51.114;6.542;2022-10-15T00:02:59;7.93;;;7.20;;
1404;SDS011;697;51.114;6.542;2022-10-15T00:05:26;6.37;;;5.77;;
1404;SDS011;697;51.114;6.542;2022-10-15T00:07:52;8.93;;;7.60;;
1404;SDS011;697;51.114;6.542;2022-10-15T00:10:21;9.43;;;8.03;;
1404;SDS011;697;51.114;6.542;2022-10-15T00:12:48;8.87;;;8.13;;
1404;SDS011;697;51.114;6.542;2022-10-15T00:15:15;9.30;;;8.33;;
1404;SDS011;697;51.114;6.542;2022-10-15T00:17:41;9.43;;;8.60;;
1404;SDS011;697;51.114;6.542;2022-10-15T00:20:09;8.27;;;7.40;;
1404;SDS011;697;51.114;6.542;2022-10-15T00:22:36;8.30;;;7.27;;
1404;SDS011;697;51.114;6.542;2022-10-15T00:25:04;12.10;;;9.60;;
1404;SDS011;697;51.114;6.542;2022-10-15T00:27:32;12.40;;;8.80;;
1404;SDS011;697;51.114;6.542;2022-10-15T00:29:59;9.80;;;7.13;;
1404;SDS011;697;51.114;6.542;2022-10-15T00:32:27;8.63;;;7.80;;
1404;SDS011;697;51.114;6.542;2022-10-15T00:34:54;11.87;;;7.47;;
1404;SDS011;697;51.114;6.542;2022-10-15T00:37:21;9.73;;;8.83;;
1404;SDS011;697;51.114;6.542;2022-10-15T00:39:48;8.33;;;7.53;;
1404;SDS011;697;51.114;6.542;2022-10-15T00:42:15;12.43;;;7.73;;
1404;SDS011;697;51.114;6.542;2022-10-15T00:44:47;8.70;;;6.90;;
1404;SDS011;697;51.114;6.542;2022-10-15T00:47:17;8.13;;;7.37;;
1404;SDS011;697;51.114;6.542;2022-10-15T00:49:50;8.97;;;7.10;;
1404;SDS011;697;51.114;6.542;2022-10-15T00:52:24;8.03;;;7.23;;
1404;SDS011;697;51.114;6.542;2022-10-15T00:54:57;7.17;;;6.47;;
1404;SDS011;697;51.114;6.542;2022-10-15T00:57:26;7.73;;;6.60;;
1404;SDS011;697;51.114;6.542;2022-10-15T00:59:57;7.53;;;6.20;;
1404;SDS011;697;51.114;6.542;2022-10-15T01:02:27;6.67;;;6.07;;
1404;SDS011;697;51.114;6.542;2022-10-15T01:04:54;6.33;;;5.73;;
1404;SDS011;697;51.114;6.542;2022-10-15T01:07:21;9.00;;;5.67;;
1404;SDS011;697;51.114;6.542;2022-10-15T01:09:48;7.27;;;6.57;;
1404;SDS011;697;51.114;6.542;2022-10-15T01:12:17;11.20;;;7.60;;
1404;SDS011;697;51.114;6.542;2022-10-15T01:14:50;8.13;;;7.00;;
1404;SDS011;697;51.114;6.542;2022-10-15T01:17:28;8.90;;;6.83;;
1404;SDS011;697;51.114;6.542;2022-10-15T01:23:27;7.23;;;6.53;;
1404;SDS011;697;51.114;6.542;2022-10-15T01:26:25;7.80;;;7.00;;
1404;SDS011;697;51.114;6.542;2022-10-15T01:29:13;9.33;;;7.63;;
1404;SDS011;697;51.114;6.542;2022-10-15T01:31:56;8.00;;;7.30;;
1404;SDS011;697;51.114;6.542;2022-10-15T01:34:31;13.53;;;8.77;;
1404;SDS011;697;51.114;6.542;2022-10-15T01:37:04;9.47;;;8.47;;
1404;SDS011;697;51.114;6.542;2022-10-15T01:39:36;11.57;;;9.10;;
1404;SDS011;697;51.114;6.542;2022-10-15T01:42:06;14.53;;;9.13;;
1404;SDS011;697;51.114;6.542;2022-10-15T01:44:41;9.10;;;8.03;;
1404;SDS011;697;51.114;6.542;2022-10-15T01:47:15;9.50;;;7.80;;
1404;SDS011;697;51.114;6.542;2022-10-15T01:49:48;8.30;;;6.60;;
1404;SDS011;697;51.114;6.542;2022-10-15T01:52:18;8.60;;;7.60;;
1404;SDS011;697;51.114;6.542;2022-10-15T01:54:48;10.07;;;7.80;;
1404;SDS011;697;51.114;6.542;2022-10-15T01:57:17;11.57;;;8.93;;
1404;SDS011;697;51.114;6.542;2022-10-15T01:59:45;13.70;;;6.70;;
1404;SDS011;697;51.114;6.542;2022-10-15T02:02:14;8.77;;;6.83;;
1404;SDS011;697;51.114;6.542;2022-10-15T02:04:40;9.10;;;7.23;;
1404;SDS011;697;51.114;6.542;2022-10-15T02:07:08;12.33;;;6.40;;
1404;SDS011;697;51.114;6.542;2022-10-15T02:09:40;10.10;;;5.77;;
1404;SDS011;697;51.114;6.542;2022-10-15T02:12:15;11.30;;;5.83;;
1404;SDS011;697;51.114;6.542;2022-10-15T02:14:58;7.47;;;6.30;;
1404;SDS011;697;51.114;6.542;2022-10-15T02:17:30;7.90;;;6.50;;
1404;SDS011;697;51.114;6.542;2022-10-15T02:20:04;7.77;;;6.27;;
1404;SDS011;697;51.114;6.542;2022-10-15T02:22:38;7.70;;;5.53;;
1404;SDS011;697;51.114;6.542;2022-10-15T02:25:12;8.47;;;6.23;;
1404;SDS011;697;51.114;6.542;2022-10-15T02:27:43;11.60;;;7.37;;
1404;SDS011;697;51.114;6.542;2022-10-15T02:30:12;8.53;;;6.30;;
1404;SDS011;697;51.114;6.542;2022-10-15T02:32:41;9.67;;;6.80;;
1404;SDS011;697;51.114;6.542;2022-10-15T02:35:12;7.10;;;6.40;;
1404;SDS011;697;51.114;6.542;2022-10-15T02:37:41;10.10;;;5.70;;
1404;SDS011;697;51.114;6.542;2022-10-15T02:40:14;6.13;;;5.53;;
1404;SDS011;697;51.114;6.542;2022-10-15T02:42:41;9.50;;;7.37;;
1404;SDS011;697;51.114;6.542;2022-10-15T02:45:08;10.43;;;7.43;;
1404;SDS011;697;51.114;6.542;2022-10-15T02:47:35;10.47;;;6.43;;
1404;SDS011;697;51.114;6.542;2022-10-15T02:50:03;10.23;;;7.20;;
1404;SDS011;697;51.114;6.542;2022-10-15T02:52:31;8.87;;;7.50;;
1404;SDS011;697;51.114;6.542;2022-10-15T02:54:58;10.10;;;7.80;;
1404;SDS011;697;51.114;6.542;2022-10-15T02:57:24;9.10;;;7.10;;
1404;SDS011;697;51.114;6.542;2022-10-15T02:59:51;9.97;;;8.23;;
1404;SDS011;697;51.114;6.542;2022-10-15T03:02:18;9.10;;;8.20;;
1404;SDS011;697;51.114;6.542;2022-10-15T03:04:45;8.77;;;7.83;;
1404;SDS011;697;51.114;6.542;2022-10-15T03:07:13;7.53;;;6.83;;
1404;SDS011;697;51.114;6.542;2022-10-15T03:09:39;8.83;;;7.70;;
1404;SDS011;697;51.114;6.542;2022-10-15T03:12:06;8.90;;;8.00;;
1404;SDS011;697;51.114;6.542;2022-10-15T03:14:33;8.93;;;7.33;;
1404;SDS011;697;51.114;6.542;2022-10-15T03:17:00;10.90;;;7.70;;
1404;SDS011;697;51.114;6.542;2022-10-15T03:19:26;9.63;;;8.63;;
1404;SDS011;697;51.114;6.542;2022-10-15T03:21:53;8.90;;;7.83;;
1404;SDS011;697;51.114;6.542;2022-10-15T03:24:21;8.57;;;7.60;;
1404;SDS011;697;51.114;6.542;2022-10-15T03:26:48;9.30;;;8.27;;
1404;SDS011;697;51.114;6.542;2022-10-15T03:29:15;7.07;;;6.47;;
1404;SDS011;697;51.114;6.542;2022-10-15T03:31:41;13.27;;;8.33;;
1404;SDS011;697;51.114;6.542;2022-10-15T03:34:08;8.57;;;7.77;;
1404;SDS011;697;51.114;6.542;2022-10-15T03:36:35;13.73;;;9.57;;
1404;SDS011;697;51.114;6.542;2022-10-15T03:39:02;10.60;;;8.60;;
1404;SDS011;697;51.114;6.542;2022-10-15T03:41:30;9.60;;;8.17;;
1404;SDS011;697;51.114;6.542;2022-10-15T03:43:59;12.37;;;9.87;;
1404;SDS011;697;51.114;6.542;2022-10-15T03:46:26;8.50;;;7.60;;
1404;SDS011;697;51.114;6.542;2022-10-15T03:48:53;8.80;;;7.90;;
1404;SDS011;697;51.114;6.542;2022-10-15T03:51:20;8.10;;;7.27;;
1404;SDS011;697;51.114;6.542;2022-10-15T03:53:48;9.10;;;8.20;;
1404;SDS011;697;51.114;6.542;2022-10-15T03:56:15;10.70;;;9.60;;
1404;SDS011;697;51.114;6.542;2022-10-15T03:58:43;12.27;;;9.23;;
1404;SDS011;697;51.114;6.542;2022-10-15T04:01:11;9.53;;;8.63;;
1404;SDS011;697;51.114;6.542;2022-10-15T04:03:39;8.37;;;7.43;;
1404;SDS011;697;51.114;6.542;2022-10-15T04:06:06;9.73;;;8.70;;
1404;SDS011;697;51.114;6.542;2022-10-15T04:08:33;10.93;;;9.77;;
1404;SDS011;697;51.114;6.542;2022-10-15T04:11:00;11.57;;;9.53;;
1404;SDS011;697;51.114;6.542;2022-10-15T04:13:27;16.80;;;10.87;;
1404;SDS011;697;51.114;6.542;2022-10-15T04:15:55;13.07;;;9.57;;
1404;SDS011;697;51.114;6.542;2022-10-15T04:18:22;10.67;;;8.93;;
1404;SDS011;697;51.114;6.542;2022-10-15T04:20:49;12.90;;;9.23;;
1404;SDS011;697;51.114;6.542;2022-10-15T04:23:16;11.27;;;9.23;;
1404;SDS011;697;51.114;6.542;2022-10-15T04:25:43;12.53;;;8.70;;
1404;SDS011;697;51.114;6.542;2022-10-15T04:28:10;12.50;;;11.30;;
1404;SDS011;697;51.114;6.542;2022-10-15T04:30:36;10.53;;;9.40;;
1404;SDS011;697;51.114;6.542;2022-10-15T04:33:04;17.03;;;10.77;;
1404;SDS011;697;51.114;6.542;2022-10-15T04:35:31;16.80;;;10.73;;
1404;SDS011;697;51.114;6.542;2022-10-15T04:37:59;20.40;;;10.07;;
1404;SDS011;697;51.114;6.542;2022-10-15T04:40:26;13.20;;;9.30;;
1404;SDS011;697;51.114;6.542;2022-10-15T04:42:52;11.30;;;9.10;;
1404;SDS011;697;51.114;6.542;2022-10-15T04:45:19;13.13;;;9.40;;
1404;SDS011;697;51.114;6.542;2022-10-15T04:47:46;15.17;;;9.50;;
1404;SDS011;697;51.114;6.542;2022-10-15T04:50:14;12.43;;;9.83;;
1404;SDS011;697;51.114;6.542;2022-10-15T04:52:41;11.90;;;10.47;;
1404;SDS011;697;51.114;6.542;2022-10-15T04:55:08;14.70;;;10.13;;
1404;SDS011;697;51.114;6.542;2022-10-15T04:57:34;12.13;;;9.77;;
1404;SDS011;697;51.114;6.542;2022-10-15T05:00:01;16.60;;;9.83;;
1404;SDS011;697;51.114;6.542;2022-10-15T05:02:29;12.70;;;10.67;;
1404;SDS011;697;51.114;6.542;2022-10-15T05:04:56;14.63;;;10.10;;
1404;SDS011;697;51.114;6.542;2022-10-15T05:07:24;13.53;;;11.47;;
1404;SDS011;697;51.114;6.542;2022-10-15T05:09:51;12.60;;;11.40;;
1404;SDS011;697;51.114;6.542;2022-10-15T05:12:18;15.13;;;13.53;;
1404;SDS011;697;51.114;6.542;2022-10-15T05:14:45;14.60;;;13.00;;
1404;SDS011;697;51.114;6.542;2022-10-15T05:17:12;16.73;;;13.53;;
1404;SDS011;697;51.114;6.542;2022-10-15T05:19:38;16.23;;;14.30;;
1404;SDS011;697;51.114;6.542;2022-10-15T05:22:05;18.90;;;15.30;;
1404;SDS011;697;51.114;6.542;2022-10-15T05:24:33;29.03;;;16.87;;
1404;SDS011;697;51.114;6.542;2022-10-15T05:27:00;19.50;;;17.40;;
1404;SDS011;697;51.114;6.542;2022-10-15T05:29:27;21.90;;;18.50;;
1404;SDS011;697;51.114;6.542;2022-10-15T05:31:54;25.00;;;20.27;;
1404;SDS011;697;51.114;6.542;2022-10-15T05:34:20;21.90;;;19.57;;
1404;SDS011;697;51.114;6.542;2022-10-15T05:36:47;26.93;;;21.50;;
1404;SDS011;697;51.114;6.542;2022-10-15T05:39:14;26.20;;;23.43;;
1404;SDS011;697;51.114;6.542;2022-10-15T05:41:42;31.27;;;26.00;;
1404;SDS011;697;51.114;6.542;2022-10-15T05:44:09;32.40;;;26.60;;
1404;SDS011;697;51.114;6.542;2022-10-15T05:46:35;34.33;;;27.80;;
1404;SDS011;697;51.114;6.542;2022-10-15T05:49:02;30.63;;;26.53;;
1404;SDS011;697;51.114;6.542;2022-10-15T05:51:29;27.27;;;23.40;;
1404;SDS011;697;51.114;6.542;2022-10-15T05:53:56;34.67;;;28.20;;
1404;SDS011;697;51.114;6.542;2022-10-15T05:56:24;37.00;;;26.33;;
1404;SDS011;697;51.114;6.542;2022-10-15T05:58:53;30.37;;;26.30;;
1404;SDS011;697;51.114;6.542;2022-10-15T06:01:20;32.97;;;27.17;;
1404;SDS011;697;51.114;6.542;2022-10-15T06:03:47;29.70;;;25.17;;
1404;SDS011;697;51.114;6.542;2022-10-15T06:06:15;34.03;;;26.37;;
1404;SDS011;697;51.114;6.542;2022-10-15T06:08:43;33.87;;;26.33;;
1404;SDS011;697;51.114;6.542;2022-10-15T06:11:10;30.37;;;26.07;;
1404;SDS011;697;51.114;6.542;2022-10-15T06:13:38;36.77;;;28.67;;
1404;SDS011;697;51.114;6.542;2022-10-15T06:16:08;33.83;;;26.40;;
1404;SDS011;697;51.114;6.542;2022-10-15T06:18:35;29.83;;;25.27;;
1404;SDS011;697;51.114;6.542;2022-10-15T06:21:05;33.60;;;27.10;;
1404;SDS011;697;51.114;6.542;2022-10-15T06:23:32;32.77;;;25.33;;
1404;SDS011;697;51.114;6.542;2022-10-15T06:26:00;31.17;;;23.53;;
1404;SDS011;697;51.114;6.542;2022-10-15T06:28:28;29.53;;;22.53;;
1404;SDS011;697;51.114;6.542;2022-10-15T06:30:56;24.07;;;20.83;;
1404;SDS011;697;51.114;6.542;2022-10-15T06:33:25;28.33;;;22.80;;
1404;SDS011;697;51.114;6.542;2022-10-15T06:35:58;24.70;;;20.30;;
1404;SDS011;697;51.114;6.542;2022-10-15T06:38:26;26.43;;;21.57;;
1404;SDS011;697;51.114;6.542;2022-10-15T06:40:53;27.63;;;22.50;;
1404;SDS011;697;51.114;6.542;2022-10-15T06:43:19;26.00;;;22.30;;
1404;SDS011;697;51.114;6.542;2022-10-15T06:45:46;23.80;;;20.57;;
1404;SDS011;697;51.114;6.542;2022-10-15T06:48:13;25.70;;;22.40;;
1404;SDS011;697;51.114;6.542;2022-10-15T06:50:41;27.83;;;23.20;;
1404;SDS011;697;51.114;6.542;2022-10-15T06:53:08;28.50;;;22.37;;
1404;SDS011;697;51.114;6.542;2022-10-15T06:55:35;23.83;;;20.80;;
1404;SDS011;697;51.114;6.542;2022-10-15T06:58:03;24.67;;;21.90;;
1404;SDS011;697;51.114;6.542;2022-10-15T07:00:30;28.87;;;22.83;;
1404;SDS011;697;51.114;6.542;2022-10-15T07:03:01;26.23;;;21.80;;
1404;SDS011;697;51.114;6.542;2022-10-15T07:05:29;21.50;;;19.17;;
1404;SDS011;697;51.114;6.542;2022-10-15T07:07:57;22.93;;;20.37;;
1404;SDS011;697;51.114;6.542;2022-10-15T07:10:25;22.60;;;19.47;;
1404;SDS011;697;51.114;6.542;2022-10-15T07:12:52;22.93;;;19.10;;
1404;SDS011;697;51.114;6.542;2022-10-15T07:15:20;21.10;;;18.30;;
1404;SDS011;697;51.114;6.542;2022-10-15T07:17:46;20.43;;;17.77;;
1404;SDS011;697;51.114;6.542;2022-10-15T07:20:14;19.70;;;16.13;;
1404;SDS011;697;51.114;6.542;2022-10-15T07:22:40;17.73;;;14.73;;
1404;SDS011;697;51.114;6.542;2022-10-15T07:25:09;18.93;;;16.87;;
1404;SDS011;697;51.114;6.542;2022-10-15T07:27:36;15.50;;;13.93;;
1404;SDS011;697;51.114;6.542;2022-10-15T07:30:03;14.17;;;12.53;;
1404;SDS011;697;51.114;6.542;2022-10-15T07:32:32;15.13;;;13.63;;
1404;SDS011;697;51.114;6.542;2022-10-15T07:34:59;15.70;;;14.07;;
1404;SDS011;697;51.114;6.542;2022-10-15T07:37:26;14.77;;;13.27;;
1404;SDS011;697;51.114;6.542;2022-10-15T07:39:53;15.43;;;13.60;;
1404;SDS011;697;51.114;6.542;2022-10-15T07:42:21;14.60;;;11.43;;
1404;SDS011;697;51.114;6.542;2022-10-15T07:44:48;12.07;;;10.73;;
1404;SDS011;697;51.114;6.542;2022-10-15T07:47:14;10.53;;;9.57;;
1404;SDS011;697;51.114;6.542;2022-10-15T07:49:41;10.53;;;9.53;;
1404;SDS011;697;51.114;6.542;2022-10-15T07:52:08;9.63;;;8.83;;
1404;SDS011;697;51.114;6.542;2022-10-15T07:54:35;8.53;;;7.73;;
1404;SDS011;697;51.114;6.542;2022-10-15T07:57:01;9.63;;;7.33;;
1404;SDS011;697;51.114;6.542;2022-10-15T07:59:32;8.33;;;7.50;;
1404;SDS011;697;51.114;6.542;2022-10-15T08:01:59;7.50;;;6.80;;
1404;SDS011;697;51.114;6.542;2022-10-15T08:04:25;7.77;;;7.07;;
1404;SDS011;697;51.114;6.542;2022-10-15T08:06:52;9.57;;;7.87;;
1404;SDS011;697;51.114;6.542;2022-10-15T08:09:19;7.70;;;6.90;;
1404;SDS011;697;51.114;6.542;2022-10-15T08:11:46;6.90;;;6.17;;
1404;SDS011;697;51.114;6.542;2022-10-15T08:14:12;6.57;;;5.97;;
1404;SDS011;697;51.114;6.542;2022-10-15T08:16:40;5.70;;;5.30;;
1404;SDS011;697;51.114;6.542;2022-10-15T08:19:07;6.47;;;4.40;;
1404;SDS011;697;51.114;6.542;2022-10-15T08:21:34;6.23;;;5.63;;
1404;SDS011;697;51.114;6.542;2022-10-15T08:24:01;4.60;;;4.10;;
1404;SDS011;697;51.114;6.542;2022-10-15T08:26:27;4.20;;;3.70;;
1404;SDS011;697;51.114;6.542;2022-10-15T08:28:54;4.07;;;3.77;;
1404;SDS011;697;51.114;6.542;2022-10-15T08:31:21;4.50;;;4.10;;
1404;SDS011;697;51.114;6.542;2022-10-15T08:33:49;4.50;;;3.80;;
1404;SDS011;697;51.114;6.542;2022-10-15T08:36:16;3.67;;;3.33;;
1404;SDS011;697;51.114;6.542;2022-10-15T08:38:43;6.23;;;3.30;;
1404;SDS011;697;51.114;6.542;2022-10-15T08:41:13;3.00;;;2.60;;
1404;SDS011;697;51.114;6.542;2022-10-15T08:43:49;2.60;;;2.37;;
1404;SDS011;697;51.114;6.542;2022-10-15T08:46:17;2.03;;;1.90;;
1404;SDS011;697;51.114;6.542;2022-10-15T08:48:51;2.13;;;1.90;;
1404;SDS011;697;51.114;6.542;2022-10-15T08:51:20;1.70;;;1.60;;
1404;SDS011;697;51.114;6.542;2022-10-15T08:53:49;1.93;;;1.27;;
1404;SDS011;697;51.114;6.542;2022-10-15T08:56:21;1.90;;;1.20;;
1404;SDS011;697;51.114;6.542;2022-10-15T08:58:52;0.90;;;0.83;;
1404;SDS011;697;51.114;6.542;2022-10-15T09:01:26;1.00;;;0.90;;
1404;SDS011;697;51.114;6.542;2022-10-15T09:04:03;0.80;;;0.70;;
1404;SDS011;697;51.114;6.542;2022-10-15T09:06:38;1.90;;;1.03;;
1404;SDS011;697;51.114;6.542;2022-10-15T09:09:06;0.63;;;0.63;;
1404;SDS011;697;51.114;6.542;2022-10-15T09:11:47;1.67;;;0.70;;
1404;SDS011;697;51.114;6.542;2022-10-15T09:14:22;0.67;;;0.67;;
1404;SDS011;697;51.114;6.542;2022-10-15T09:16:52;0.93;;;0.80;;
1404;SDS011;697;51.114;6.542;2022-10-15T09:19:21;0.70;;;0.70;;
1404;SDS011;697;51.114;6.542;2022-10-15T09:21:50;0.83;;;0.80;;
1404;SDS011;697;51.114;6.542;2022-10-15T09:24:19;1.47;;;0.90;;
1404;SDS011;697;51.114;6.542;2022-10-15T09:26:52;3.47;;;1.07;;
1404;SDS011;697;51.114;6.542;2022-10-15T09:29:26;0.90;;;0.90;;
1404;SDS011;697;51.114;6.542;2022-10-15T09:32:03;1.40;;;0.90;;
1404;SDS011;697;51.114;6.542;2022-10-15T09:34:40;0.73;;;0.70;;
1404;SDS011;697;51.114;6.542;2022-10-15T09:37:14;9.13;;;1.00;;
1404;SDS011;697;51.114;6.542;2022-10-15T09:39:49;2.00;;;0.80;;
1404;SDS011;697;51.114;6.542;2022-10-15T09:42:27;1.07;;;0.87;;
1404;SDS011;697;51.114;6.542;2022-10-15T09:44:57;0.93;;;0.60;;
1404;SDS011;697;51.114;6.542;2022-10-15T09:47:26;0.70;;;0.70;;
1404;SDS011;697;51.114;6.542;2022-10-15T09:49:56;0.70;;;0.70;;
1404;SDS011;697;51.114;6.542;2022-10-15T09:52:25;1.13;;;0.93;;
1404;SDS011;697;51.114;6.542;2022-10-15T09:55:07;0.70;;;0.60;;
1404;SDS011;697;51.114;6.542;2022-10-15T09:57:42;1.13;;;1.07;;
1404;SDS011;697;51.114;6.542;2022-10-15T10:00:15;1.40;;;0.70;;
1404;SDS011;697;51.114;6.542;2022-10-15T10:02:42;0.70;;;0.67;;
1404;SDS011;697;51.114;6.542;2022-10-15T10:05:26;1.40;;;0.83;;
1404;SDS011;697;51.114;6.542;2022-10-15T10:08:05;1.77;;;0.97;;
1404;SDS011;697;51.114;6.542;2022-10-15T10:10:34;1.03;;;0.90;;
1404;SDS011;697;51.114;6.542;2022-10-15T10:13:02;0.80;;;0.80;;
1404;SDS011;697;51.114;6.542;2022-10-15T10:15:33;0.80;;;0.80;;
1404;SDS011;697;51.114;6.542;2022-10-15T10:18:02;1.40;;;0.93;;
1404;SDS011;697;51.114;6.542;2022-10-15T10:20:32;0.90;;;0.80;;
1404;SDS011;697;51.114;6.542;2022-10-15T10:23:00;0.50;;;0.50;;
1404;SDS011;697;51.114;6.542;2022-10-15T10:25:30;1.83;;;1.00;;
1404;SDS011;697;51.114;6.542;2022-10-15T10:28:03;1.20;;;1.10;;
1404;SDS011;697;51.114;6.542;2022-10-15T10:30:41;3.90;;;0.70;;
1404;SDS011;697;51.114;6.542;2022-10-15T10:33:14;1.73;;;0.83;;
1404;SDS011;697;51.114;6.542;2022-10-15T10:35:51;1.47;;;0.80;;
1404;SDS011;697;51.114;6.542;2022-10-15T10:38:19;1.20;;;1.10;;
1404;SDS011;697;51.114;6.542;2022-10-15T10:40:49;1.03;;;0.60;;
1404;SDS011;697;51.114;6.542;2022-10-15T10:43:18;1.80;;;1.00;;
1404;SDS011;697;51.114;6.542;2022-10-15T10:45:52;0.90;;;0.80;;
1404;SDS011;697;51.114;6.542;2022-10-15T10:48:21;3.20;;;0.80;;
1404;SDS011;697;51.114;6.542;2022-10-15T10:51:02;1.10;;;0.67;;
1404;SDS011;697;51.114;6.542;2022-10-15T10:53:31;0.53;;;0.53;;
1404;SDS011;697;51.114;6.542;2022-10-15T10:56:01;2.00;;;0.70;;
1404;SDS011;697;51.114;6.542;2022-10-15T10:58:32;0.80;;;0.80;;
1404;SDS011;697;51.114;6.542;2022-10-15T11:00:59;1.00;;;1.00;;
1404;SDS011;697;51.114;6.542;2022-10-15T11:03:29;1.90;;;1.17;;
1404;SDS011;697;51.114;6.542;2022-10-15T11:06:04;1.00;;;0.90;;
1404;SDS011;697;51.114;6.542;2022-10-15T11:08:55;0.83;;;0.83;;
1404;SDS011;697;51.114;6.542;2022-10-15T11:11:32;0.60;;;0.50;;
1404;SDS011;697;51.114;6.542;2022-10-15T11:14:07;0.90;;;0.90;;
1404;SDS011;697;51.114;6.542;2022-10-15T11:16:47;0.60;;;0.60;;
1404;SDS011;697;51.114;6.542;2022-10-15T11:19:24;0.60;;;0.57;;
1404;SDS011;697;51.114;6.542;2022-10-15T11:22:03;0.60;;;0.60;;
1404;SDS011;697;51.114;6.542;2022-10-15T11:24:42;0.80;;;0.60;;
1404;SDS011;697;51.114;6.542;2022-10-15T11:27:22;1.10;;;0.70;;
1404;SDS011;697;51.114;6.542;2022-10-15T11:30:15;1.07;;;0.60;;
1404;SDS011;697;51.114;6.542;2022-10-15T11:32:54;1.37;;;0.70;;
1404;SDS011;697;51.114;6.542;2022-10-15T11:35:34;1.23;;;0.80;;
1404;SDS011;697;51.114;6.542;2022-10-15T11:38:12;0.40;;;0.40;;
1404;SDS011;697;51.114;6.542;2022-10-15T11:40:50;1.00;;;0.60;;
1404;SDS011;697;51.114;6.542;2022-10-15T11:43:33;1.00;;;0.60;;
1404;SDS011;697;51.114;6.542;2022-10-15T11:46:17;3.50;;;0.77;;
1404;SDS011;697;51.114;6.542;2022-10-15T11:48:54;0.93;;;0.77;;
1404;SDS011;697;51.114;6.542;2022-10-15T11:51:30;0.83;;;0.40;;
1404;SDS011;697;51.114;6.542;2022-10-15T11:54:07;1.10;;;0.40;;
1404;SDS011;697;51.114;6.542;2022-10-15T11:56:46;2.13;;;0.90;;
1404;SDS011;697;51.114;6.542;2022-10-15T11:59:29;1.70;;;0.40;;
1404;SDS011;697;51.114;6.542;2022-10-15T12:02:01;2.80;;;0.40;;
1404;SDS011;697;51.114;6.542;2022-10-15T12:04:39;1.50;;;0.40;;
1404;SDS011;697;51.114;6.542;2022-10-15T12:07:12;0.40;;;0.30;;
1404;SDS011;697;51.114;6.542;2022-10-15T12:09:45;0.50;;;0.30;;
1404;SDS011;697;51.114;6.542;2022-10-15T12:12:17;2.60;;;0.47;;
1404;SDS011;697;51.114;6.542;2022-10-15T12:15:03;1.67;;;0.40;;
1404;SDS011;697;51.114;6.542;2022-10-15T12:17:42;1.00;;;0.40;;
1404;SDS011;697;51.114;6.542;2022-10-15T12:20:17;0.93;;;0.40;;
1404;SDS011;697;51.114;6.542;2022-10-15T12:22:53;1.90;;;0.40;;
1404;SDS011;697;51.114;6.542;2022-10-15T12:28:13;0.40;;;0.30;;
1404;SDS011;697;51.114;6.542;2022-10-15T12:44:16;0.50;;;0.50;;
1404;SDS011;697;51.114;6.542;2022-10-15T12:46:46;1.53;;;0.90;;
1404;SDS011;697;51.114;6.542;2022-10-15T12:55:18;1.10;;;0.50;;
1404;SDS011;697;51.114;6.542;2022-10-15T12:57:50;0.73;;;0.57;;
1404;SDS011;697;51.114;6.542;2022-10-15T13:06:12;1.70;;;0.70;;
1404;SDS011;697;51.114;6.542;2022-10-15T13:08:58;0.83;;;0.43;;
1404;SDS011;697;51.114;6.542;2022-10-15T13:11:37;0.60;;;0.40;;
1404;SDS011;697;51.114;6.542;2022-10-15T13:14:13;3.20;;;0.50;;
1404;SDS011;697;51.114;6.542;2022-10-15T13:16:46;2.00;;;0.67;;
1404;SDS011;697;51.114;6.542;2022-10-15T13:19:18;1.80;;;0.60;;
1404;SDS011;697;51.114;6.542;2022-10-15T13:21:46;6.83;;;0.67;;
1404;SDS011;697;51.114;6.542;2022-10-15T13:24:15;1.60;;;0.50;;
1404;SDS011;697;51.114;6.542;2022-10-15T13:26:44;1.37;;;0.80;;
1404;SDS011;697;51.114;6.542;2022-10-15T13:29:13;0.57;;;0.57;;
1404;SDS011;697;51.114;6.542;2022-10-15T13:31:41;0.50;;;0.47;;
1404;SDS011;697;51.114;6.542;2022-10-15T13:34:13;1.43;;;0.40;;
1404;SDS011;697;51.114;6.542;2022-10-15T13:36:46;1.13;;;0.50;;
1404;SDS011;697;51.114;6.542;2022-10-15T13:39:21;1.70;;;0.47;;
1404;SDS011;697;51.114;6.542;2022-10-15T13:41:54;0.60;;;0.50;;
1404;SDS011;697;51.114;6.542;2022-10-15T13:44:33;0.80;;;0.50;;
1404;SDS011;697;51.114;6.542;2022-10-15T13:47:00;5.20;;;0.50;;
1404;SDS011;697;51.114;6.542;2022-10-15T13:49:28;0.80;;;0.50;;
1404;SDS011;697;51.114;6.542;2022-10-15T13:51:55;2.73;;;0.43;;
1404;SDS011;697;51.114;6.542;2022-10-15T13:54:22;0.40;;;0.40;;
1404;SDS011;697;51.114;6.542;2022-10-15T13:56:54;0.40;;;0.30;;
1404;SDS011;697;51.114;6.542;2022-10-15T13:59:24;0.83;;;0.40;;
1404;SDS011;697;51.114;6.542;2022-10-15T14:01:53;0.40;;;0.30;;
1404;SDS011;697;51.114;6.542;2022-10-15T14:04:25;1.13;;;0.40;;
1404;SDS011;697;51.114;6.542;2022-10-15T14:06:55;0.53;;;0.40;;
1404;SDS011;697;51.114;6.542;2022-10-15T14:09:26;0.53;;;0.53;;
1404;SDS011;697;51.114;6.542;2022-10-15T14:11:56;0.60;;;0.60;;
1404;SDS011;697;51.114;6.542;2022-10-15T14:14:27;0.60;;;0.40;;
1404;SDS011;697;51.114;6.542;2022-10-15T14:16:56;2.97;;;0.70;;
1404;SDS011;697;51.114;6.542;2022-10-15T14:19:24;1.77;;;0.80;;
1404;SDS011;697;51.114;6.542;2022-10-15T14:21:55;1.20;;;0.77;;
1404;SDS011;697;51.114;6.542;2022-10-15T14:24:25;1.80;;;0.37;;
1404;SDS011;697;51.114;6.542;2022-10-15T14:26:59;1.10;;;0.50;;
1404;SDS011;697;51.114;6.542;2022-10-15T14:29:28;0.80;;;0.40;;
1404;SDS011;697;51.114;6.542;2022-10-15T14:32:02;0.60;;;0.60;;
1404;SDS011;697;51.114;6.542;2022-10-15T14:34:42;1.30;;;0.60;;
1404;SDS011;697;51.114;6.542;2022-10-15T14:40:01;0.97;;;0.87;;
1404;SDS011;697;51.114;6.542;2022-10-15T14:42:37;1.67;;;0.73;;
1404;SDS011;697;51.114;6.542;2022-10-15T14:45:12;1.67;;;0.77;;
1404;SDS011;697;51.114;6.542;2022-10-15T14:47:46;2.50;;;0.90;;
1404;SDS011;697;51.114;6.542;2022-10-15T14:50:15;1.67;;;0.53;;
1404;SDS011;697;51.114;6.542;2022-10-15T14:52:45;2.60;;;0.83;;
1404;SDS011;697;51.114;6.542;2022-10-15T14:55:15;1.17;;;1.07;;
1404;SDS011;697;51.114;6.542;2022-10-15T14:57:57;2.47;;;1.33;;
1404;SDS011;697;51.114;6.542;2022-10-15T15:00:26;0.60;;;0.57;;
1404;SDS011;697;51.114;6.542;2022-10-15T15:02:55;3.60;;;0.80;;
1404;SDS011;697;51.114;6.542;2022-10-15T15:05:22;1.20;;;0.70;;
1404;SDS011;697;51.114;6.542;2022-10-15T15:07:51;1.53;;;0.83;;
1404;SDS011;697;51.114;6.542;2022-10-15T15:10:19;1.20;;;1.10;;
1404;SDS011;697;51.114;6.542;2022-10-15T15:12:48;1.93;;;1.00;;
1404;SDS011;697;51.114;6.542;2022-10-15T15:15:17;2.50;;;1.20;;
1404;SDS011;697;51.114;6.542;2022-10-15T15:17:46;2.67;;;1.27;;
1404;SDS011;697;51.114;6.542;2022-10-15T15:20:14;0.93;;;0.90;;
1404;SDS011;697;51.114;6.542;2022-10-15T15:22:44;1.47;;;1.37;;
1404;SDS011;697;51.114;6.542;2022-10-15T15:25:16;2.83;;;1.53;;
1404;SDS011;697;51.114;6.542;2022-10-15T15:27:45;1.57;;;1.40;;
1404;SDS011;697;51.114;6.542;2022-10-15T15:30:13;1.87;;;1.53;;
1404;SDS011;697;51.114;6.542;2022-10-15T15:32:42;2.33;;;1.23;;
1404;SDS011;697;51.114;6.542;2022-10-15T15:35:13;2.50;;;1.30;;
1404;SDS011;697;51.114;6.542;2022-10-15T15:37:45;3.10;;;1.13;;
1404;SDS011;697;51.114;6.542;2022-10-15T15:40:12;4.37;;;1.57;;
1404;SDS011;697;51.114;6.542;2022-10-15T15:42:40;1.43;;;1.20;;
1404;SDS011;697;51.114;6.542;2022-10-15T15:45:12;1.50;;;1.40;;
1404;SDS011;697;51.114;6.542;2022-10-15T15:47:45;2.07;;;1.43;;
1404;SDS011;697;51.114;6.542;2022-10-15T15:50:12;1.47;;;1.03;;
1404;SDS011;697;51.114;6.542;2022-10-15T15:52:39;1.40;;;1.30;;
1404;SDS011;697;51.114;6.542;2022-10-15T15:55:06;1.80;;;1.27;;
1404;SDS011;697;51.114;6.542;2022-10-15T15:57:34;3.13;;;1.47;;
1404;SDS011;697;51.114;6.542;2022-10-15T16:00:04;2.23;;;1.30;;
1404;SDS011;697;51.114;6.542;2022-10-15T16:02:33;2.47;;;1.20;;
1404;SDS011;697;51.114;6.542;2022-10-15T16:05:00;4.87;;;1.17;;
1404;SDS011;697;51.114;6.542;2022-10-15T16:07:28;1.83;;;1.50;;
1404;SDS011;697;51.114;6.542;2022-10-15T16:09:54;1.37;;;1.27;;
1404;SDS011;697;51.114;6.542;2022-10-15T16:12:21;8.20;;;1.50;;
1404;SDS011;697;51.114;6.542;2022-10-15T16:14:48;2.10;;;1.50;;